sensor_id;sensor_type;location;lat;lon;timestamp;P1;durP1;ratioP1;P2;durP2;ratioP2
41952;SDS011;63613;28.200;112.870;2023-06-14T00:00:16;18.17;;;14.48;;
41952;SDS011;63613;28.200;112.870;2023-06-14T00:02:43;17.10;;;15.50;;
41952;SDS011;63613;28.200;112.870;2023-06-14T00:05:10;18.63;;;16.65;;
41952;SDS011;63613;28.200;112.870;2023-06-14T00:07:41;19.27;;;17.20;;
41952;SDS011;63613;28.200;112.870;2023-06-14T00:10:09;19.15;;;17.35;;
41952;SDS011;63613;28.200;112.870;2023-06-14T00:12:40;19.17;;;17.30;;
41952;SDS011;63613;28.200;112.870;2023-06-14T00:15:07;20.02;;;17.95;;
41952;SDS011;63613;28.200;112.870;2023-06-14T00:17:37;20.13;;;18.02;;
41952;SDS011;63613;28.200;112.870;2023-06-14T00:20:04;19.55;;;17.60;;
41952;SDS011;63613;28.200;112.870;2023-06-14T00:22:32;21.50;;;17.63;;
41952;SDS011;63613;28.200;112.870;2023-06-14T00:25:02;20.42;;;18.27;;
41952;SDS011;63613;28.200;112.870;2023-06-14T00:27:28;19.23;;;17.33;;
41952;SDS011;63613;28.200;112.870;2023-06-14T00:30:15;20.08;;;17.98;;
41952;SDS011;63613;28.200;112.870;2023-06-14T00:32:43;22.25;;;19.77;;
41952;SDS011;63613;28.200;112.870;2023-06-14T00:35:10;20.02;;;17.98;;
41952;SDS011;63613;28.200;112.870;2023-06-14T00:37:38;22.90;;;18.80;;
41952;SDS011;63613;28.200;112.870;2023-06-14T00:40:06;20.05;;;17.90;;
41952;SDS011;63613;28.200;112.870;2023-06-14T00:42:33;21.27;;;18.17;;
41952;SDS011;63613;28.200;112.870;2023-06-14T00:45:00;20.92;;;18.65;;
41952;SDS011;63613;28.200;112.870;2023-06-14T00:47:27;20.83;;;18.45;;
41952;SDS011;63613;28.200;112.870;2023-06-14T00:49:54;20.85;;;18.60;;
41952;SDS011;63613;28.200;112.870;2023-06-14T00:52:22;21.27;;;18.92;;
41952;SDS011;63613;28.200;112.870;2023-06-14T00:54:53;22.88;;;19.55;;
41952;SDS011;63613;28.200;112.870;2023-06-14T00:57:19;21.35;;;19.15;;
41952;SDS011;63613;28.200;112.870;2023-06-14T00:59:49;21.70;;;19.13;;
41952;SDS011;63613;28.200;112.870;2023-06-14T01:02:16;20.40;;;18.25;;
41952;SDS011;63613;28.200;112.870;2023-06-14T01:04:47;20.73;;;18.55;;
41952;SDS011;63613;28.200;112.870;2023-06-14T01:15:33;25.07;;;22.33;;
41952;SDS011;63613;28.200;112.870;2023-06-14T01:18:03;30.25;;;25.38;;
41952;SDS011;63613;28.200;112.870;2023-06-14T01:20:33;25.45;;;22.40;;
41952;SDS011;63613;28.200;112.870;2023-06-14T01:23:03;28.55;;;25.48;;
41952;SDS011;63613;28.200;112.870;2023-06-14T01:25:30;26.85;;;23.30;;
41952;SDS011;63613;28.200;112.870;2023-06-14T01:27:58;28.40;;;25.40;;
41952;SDS011;63613;28.200;112.870;2023-06-14T01:30:28;27.88;;;24.92;;
41952;SDS011;63613;28.200;112.870;2023-06-14T01:32:58;29.17;;;25.15;;
41952;SDS011;63613;28.200;112.870;2023-06-14T01:35:25;29.48;;;24.13;;
41952;SDS011;63613;28.200;112.870;2023-06-14T01:37:52;29.35;;;23.25;;
41952;SDS011;63613;28.200;112.870;2023-06-14T01:40:20;26.48;;;23.52;;
41952;SDS011;63613;28.200;112.870;2023-06-14T01:42:49;27.98;;;23.70;;
41952;SDS011;63613;28.200;112.870;2023-06-14T01:45:36;25.42;;;22.73;;
41952;SDS011;63613;28.200;112.870;2023-06-14T01:48:03;24.70;;;21.70;;
41952;SDS011;63613;28.200;112.870;2023-06-14T01:50:30;24.40;;;20.00;;
41952;SDS011;63613;28.200;112.870;2023-06-14T01:52:57;21.13;;;19.13;;
41952;SDS011;63613;28.200;112.870;2023-06-14T01:55:27;22.83;;;19.17;;
41952;SDS011;63613;28.200;112.870;2023-06-14T01:57:54;20.02;;;17.52;;
41952;SDS011;63613;28.200;112.870;2023-06-14T02:00:21;19.90;;;17.85;;
41952;SDS011;63613;28.200;112.870;2023-06-14T02:02:48;21.80;;;19.50;;
41952;SDS011;63613;28.200;112.870;2023-06-14T02:05:34;23.92;;;19.42;;
41952;SDS011;63613;28.200;112.870;2023-06-14T02:08:04;22.30;;;20.02;;
41952;SDS011;63613;28.200;112.870;2023-06-14T02:10:31;20.60;;;18.50;;
41952;SDS011;63613;28.200;112.870;2023-06-14T02:12:58;19.73;;;17.70;;
41952;SDS011;63613;28.200;112.870;2023-06-14T02:15:45;19.35;;;17.42;;
41952;SDS011;63613;28.200;112.870;2023-06-14T02:18:12;19.65;;;17.67;;
41952;SDS011;63613;28.200;112.870;2023-06-14T02:20:38;20.20;;;18.00;;
41952;SDS011;63613;28.200;112.870;2023-06-14T02:23:05;19.92;;;17.90;;
41952;SDS011;63613;28.200;112.870;2023-06-14T02:25:33;20.05;;;18.02;;
41952;SDS011;63613;28.200;112.870;2023-06-14T02:28:00;19.13;;;17.27;;
41952;SDS011;63613;28.200;112.870;2023-06-14T02:30:27;19.55;;;17.35;;
41952;SDS011;63613;28.200;112.870;2023-06-14T02:32:54;21.80;;;19.38;;
41952;SDS011;63613;28.200;112.870;2023-06-14T02:35:21;22.13;;;19.75;;
41952;SDS011;63613;28.200;112.870;2023-06-14T02:37:51;23.33;;;19.15;;
41952;SDS011;63613;28.200;112.870;2023-06-14T02:40:19;21.35;;;19.05;;
41952;SDS011;63613;28.200;112.870;2023-06-14T02:42:46;24.13;;;19.95;;
41952;SDS011;63613;28.200;112.870;2023-06-14T02:45:13;20.33;;;18.27;;
41952;SDS011;63613;28.200;112.870;2023-06-14T02:47:43;22.23;;;19.83;;
41952;SDS011;63613;28.200;112.870;2023-06-14T02:50:11;21.33;;;18.70;;
41952;SDS011;63613;28.200;112.870;2023-06-14T02:52:38;23.13;;;20.70;;
41952;SDS011;63613;28.200;112.870;2023-06-14T02:55:07;28.15;;;22.27;;
41952;SDS011;63613;28.200;112.870;2023-06-14T02:57:37;28.35;;;23.42;;
41952;SDS011;63613;28.200;112.870;2023-06-14T03:00:04;25.45;;;22.75;;
41952;SDS011;63613;28.200;112.870;2023-06-14T03:02:35;27.40;;;24.42;;
41952;SDS011;63613;28.200;112.870;2023-06-14T03:05:01;29.33;;;26.35;;
41952;SDS011;63613;28.200;112.870;2023-06-14T03:07:31;28.42;;;25.27;;
41952;SDS011;63613;28.200;112.870;2023-06-14T03:09:58;28.60;;;25.60;;
41952;SDS011;63613;28.200;112.870;2023-06-14T03:12:24;32.22;;;27.02;;
41952;SDS011;63613;28.200;112.870;2023-06-14T03:14:53;33.72;;;28.25;;
41952;SDS011;63613;28.200;112.870;2023-06-14T03:17:22;31.38;;;26.00;;
41952;SDS011;63613;28.200;112.870;2023-06-14T03:19:49;28.65;;;25.48;;
41952;SDS011;63613;28.200;112.870;2023-06-14T03:22:16;31.80;;;28.27;;
41952;SDS011;63613;28.200;112.870;2023-06-14T03:24:43;29.30;;;24.88;;
41952;SDS011;63613;28.200;112.870;2023-06-14T03:27:10;28.77;;;25.83;;
41952;SDS011;63613;28.200;112.870;2023-06-14T03:29:38;29.52;;;25.60;;
41952;SDS011;63613;28.200;112.870;2023-06-14T03:32:05;28.73;;;24.70;;
41952;SDS011;63613;28.200;112.870;2023-06-14T03:34:32;26.00;;;23.17;;
41952;SDS011;63613;28.200;112.870;2023-06-14T03:37:00;23.30;;;20.80;;
41952;SDS011;63613;28.200;112.870;2023-06-14T03:39:27;24.48;;;19.70;;
41952;SDS011;63613;28.200;112.870;2023-06-14T03:41:53;22.88;;;20.33;;
41952;SDS011;63613;28.200;112.870;2023-06-14T03:44:20;21.45;;;19.25;;
41952;SDS011;63613;28.200;112.870;2023-06-14T03:46:47;20.77;;;18.75;;
41952;SDS011;63613;28.200;112.870;2023-06-14T03:49:14;22.25;;;20.10;;
41952;SDS011;63613;28.200;112.870;2023-06-14T03:51:42;22.00;;;19.63;;
41952;SDS011;63613;28.200;112.870;2023-06-14T03:54:12;22.38;;;20.08;;
41952;SDS011;63613;28.200;112.870;2023-06-14T03:56:38;22.08;;;19.80;;
41952;SDS011;63613;28.200;112.870;2023-06-14T03:59:05;23.27;;;20.88;;
41952;SDS011;63613;28.200;112.870;2023-06-14T04:01:32;22.33;;;20.05;;
41952;SDS011;63613;28.200;112.870;2023-06-14T04:03:59;22.88;;;20.60;;
41952;SDS011;63613;28.200;112.870;2023-06-14T04:06:26;22.75;;;20.45;;
41952;SDS011;63613;28.200;112.870;2023-06-14T04:08:57;24.85;;;21.77;;
41952;SDS011;63613;28.200;112.870;2023-06-14T04:11:29;24.50;;;21.90;;
41952;SDS011;63613;28.200;112.870;2023-06-14T04:13:57;25.20;;;22.35;;
41952;SDS011;63613;28.200;112.870;2023-06-14T04:16:45;23.95;;;21.48;;
41952;SDS011;63613;28.200;112.870;2023-06-14T04:19:15;25.13;;;22.48;;
41952;SDS011;63613;28.200;112.870;2023-06-14T04:21:42;25.92;;;22.70;;
41952;SDS011;63613;28.200;112.870;2023-06-14T04:24:10;23.17;;;20.70;;
41952;SDS011;63613;28.200;112.870;2023-06-14T04:26:41;25.00;;;21.50;;
41952;SDS011;63613;28.200;112.870;2023-06-14T04:29:13;22.80;;;20.25;;
41952;SDS011;63613;28.200;112.870;2023-06-14T04:31:45;25.15;;;22.48;;
41952;SDS011;63613;28.200;112.870;2023-06-14T04:34:12;25.08;;;22.48;;
41952;SDS011;63613;28.200;112.870;2023-06-14T04:36:44;23.50;;;21.25;;
41952;SDS011;63613;28.200;112.870;2023-06-14T04:39:22;23.10;;;20.35;;
41952;SDS011;63613;28.200;112.870;2023-06-14T04:41:49;22.80;;;20.55;;
41952;SDS011;63613;28.200;112.870;2023-06-14T04:44:23;23.67;;;20.40;;
41952;SDS011;63613;28.200;112.870;2023-06-14T04:46:56;23.23;;;20.80;;
41952;SDS011;63613;28.200;112.870;2023-06-14T04:49:24;24.25;;;21.85;;
41952;SDS011;63613;28.200;112.870;2023-06-14T04:51:52;24.90;;;21.80;;
41952;SDS011;63613;28.200;112.870;2023-06-14T04:54:27;24.65;;;22.15;;
41952;SDS011;63613;28.200;112.870;2023-06-14T04:56:57;26.80;;;24.17;;
41952;SDS011;63613;28.200;112.870;2023-06-14T04:59:24;25.92;;;23.23;;
41952;SDS011;63613;28.200;112.870;2023-06-14T05:01:51;27.38;;;22.92;;
41952;SDS011;63613;28.200;112.870;2023-06-14T05:04:19;26.63;;;23.85;;
41952;SDS011;63613;28.200;112.870;2023-06-14T05:06:47;25.67;;;23.05;;
41952;SDS011;63613;28.200;112.870;2023-06-14T05:09:35;26.45;;;23.60;;
41952;SDS011;63613;28.200;112.870;2023-06-14T05:12:02;24.92;;;22.27;;
41952;SDS011;63613;28.200;112.870;2023-06-14T05:14:35;23.30;;;21.07;;
41952;SDS011;63613;28.200;112.870;2023-06-14T05:17:02;24.15;;;21.75;;
41952;SDS011;63613;28.200;112.870;2023-06-14T05:19:29;24.20;;;21.65;;
41952;SDS011;63613;28.200;112.870;2023-06-14T05:21:56;22.33;;;20.17;;
41952;SDS011;63613;28.200;112.870;2023-06-14T05:24:23;21.65;;;19.45;;
41952;SDS011;63613;28.200;112.870;2023-06-14T05:26:49;23.05;;;20.85;;
41952;SDS011;63613;28.200;112.870;2023-06-14T05:29:16;22.15;;;20.02;;
41952;SDS011;63613;28.200;112.870;2023-06-14T05:32:05;21.38;;;19.25;;
41952;SDS011;63613;28.200;112.870;2023-06-14T05:34:35;21.77;;;19.50;;
41952;SDS011;63613;28.200;112.870;2023-06-14T05:37:02;20.50;;;18.55;;
41952;SDS011;63613;28.200;112.870;2023-06-14T05:39:29;20.90;;;19.08;;
41952;SDS011;63613;28.200;112.870;2023-06-14T05:41:56;21.08;;;18.95;;
41952;SDS011;63613;28.200;112.870;2023-06-14T05:44:27;21.38;;;19.27;;
41952;SDS011;63613;28.200;112.870;2023-06-14T05:46:54;19.90;;;17.95;;
41952;SDS011;63613;28.200;112.870;2023-06-14T05:49:20;22.88;;;20.65;;
41952;SDS011;63613;28.200;112.870;2023-06-14T05:51:49;21.45;;;19.35;;
41952;SDS011;63613;28.200;112.870;2023-06-14T05:54:16;22.35;;;20.08;;
41952;SDS011;63613;28.200;112.870;2023-06-14T05:56:48;23.33;;;20.65;;
41952;SDS011;63613;28.200;112.870;2023-06-14T05:59:16;22.20;;;20.00;;
41952;SDS011;63613;28.200;112.870;2023-06-14T06:01:43;20.88;;;18.35;;
41952;SDS011;63613;28.200;112.870;2023-06-14T06:04:10;23.90;;;19.77;;
41952;SDS011;63613;28.200;112.870;2023-06-14T06:06:41;20.95;;;18.70;;
41952;SDS011;63613;28.200;112.870;2023-06-14T06:09:08;21.30;;;19.20;;
41952;SDS011;63613;28.200;112.870;2023-06-14T06:11:35;20.10;;;18.10;;
41952;SDS011;63613;28.200;112.870;2023-06-14T06:14:02;19.77;;;17.88;;
41952;SDS011;63613;28.200;112.870;2023-06-14T06:16:32;21.95;;;19.85;;
41952;SDS011;63613;28.200;112.870;2023-06-14T06:18:59;22.10;;;19.95;;
41952;SDS011;63613;28.200;112.870;2023-06-14T06:21:26;19.83;;;17.92;;
41952;SDS011;63613;28.200;112.870;2023-06-14T06:23:52;19.05;;;17.38;;
41952;SDS011;63613;28.200;112.870;2023-06-14T06:26:21;19.75;;;17.90;;
41952;SDS011;63613;28.200;112.870;2023-06-14T06:28:48;21.60;;;19.67;;
41952;SDS011;63613;28.200;112.870;2023-06-14T06:31:15;20.23;;;18.27;;
41952;SDS011;63613;28.200;112.870;2023-06-14T06:33:42;19.70;;;17.70;;
41952;SDS011;63613;28.200;112.870;2023-06-14T06:36:14;19.23;;;17.35;;
41952;SDS011;63613;28.200;112.870;2023-06-14T06:38:44;19.48;;;17.67;;
41952;SDS011;63613;28.200;112.870;2023-06-14T06:41:13;18.75;;;17.15;;
41952;SDS011;63613;28.200;112.870;2023-06-14T06:43:40;17.55;;;16.05;;
41952;SDS011;63613;28.200;112.870;2023-06-14T06:46:10;20.23;;;18.23;;
41952;SDS011;63613;28.200;112.870;2023-06-14T06:48:38;21.45;;;19.33;;
41952;SDS011;63613;28.200;112.870;2023-06-14T06:51:05;19.95;;;17.98;;
41952;SDS011;63613;28.200;112.870;2023-06-14T06:53:32;21.15;;;19.25;;
41952;SDS011;63613;28.200;112.870;2023-06-14T06:55:58;20.27;;;18.38;;
41952;SDS011;63613;28.200;112.870;2023-06-14T06:58:25;21.95;;;19.90;;
41952;SDS011;63613;28.200;112.870;2023-06-14T07:00:52;20.85;;;18.92;;
41952;SDS011;63613;28.200;112.870;2023-06-14T07:03:19;21.48;;;19.48;;
41952;SDS011;63613;28.200;112.870;2023-06-14T07:05:46;20.73;;;18.60;;
41952;SDS011;63613;28.200;112.870;2023-06-14T07:08:18;20.55;;;18.42;;
41952;SDS011;63613;28.200;112.870;2023-06-14T07:11:06;21.80;;;19.67;;
41952;SDS011;63613;28.200;112.870;2023-06-14T07:13:33;22.55;;;20.55;;
41952;SDS011;63613;28.200;112.870;2023-06-14T07:16:00;23.17;;;20.85;;
41952;SDS011;63613;28.200;112.870;2023-06-14T07:18:27;23.23;;;21.13;;
41952;SDS011;63613;28.200;112.870;2023-06-14T07:20:54;23.20;;;20.95;;
41952;SDS011;63613;28.200;112.870;2023-06-14T07:23:21;21.50;;;19.38;;
41952;SDS011;63613;28.200;112.870;2023-06-14T07:25:48;22.90;;;20.83;;
41952;SDS011;63613;28.200;112.870;2023-06-14T07:28:16;20.98;;;19.25;;
41952;SDS011;63613;28.200;112.870;2023-06-14T07:30:43;24.08;;;21.73;;
41952;SDS011;63613;28.200;112.870;2023-06-14T07:33:10;21.77;;;19.63;;
41952;SDS011;63613;28.200;112.870;2023-06-14T07:35:40;22.02;;;19.98;;
41952;SDS011;63613;28.200;112.870;2023-06-14T07:38:07;22.23;;;20.10;;
41952;SDS011;63613;28.200;112.870;2023-06-14T07:40:33;19.58;;;17.67;;
41952;SDS011;63613;28.200;112.870;2023-06-14T07:43:00;20.73;;;18.83;;
41952;SDS011;63613;28.200;112.870;2023-06-14T07:45:27;22.10;;;20.13;;
41952;SDS011;63613;28.200;112.870;2023-06-14T07:47:57;21.38;;;19.27;;
41952;SDS011;63613;28.200;112.870;2023-06-14T07:50:28;20.50;;;18.42;;
41952;SDS011;63613;28.200;112.870;2023-06-14T07:53:18;21.00;;;19.05;;
41952;SDS011;63613;28.200;112.870;2023-06-14T07:55:45;21.05;;;19.15;;
41952;SDS011;63613;28.200;112.870;2023-06-14T07:58:12;21.33;;;19.42;;
41952;SDS011;63613;28.200;112.870;2023-06-14T08:00:39;21.85;;;19.77;;
41952;SDS011;63613;28.200;112.870;2023-06-14T08:03:08;21.30;;;19.38;;
41952;SDS011;63613;28.200;112.870;2023-06-14T08:05:37;21.67;;;19.70;;
41952;SDS011;63613;28.200;112.870;2023-06-14T08:08:05;21.02;;;19.17;;
41952;SDS011;63613;28.200;112.870;2023-06-14T08:10:32;21.58;;;19.73;;
41952;SDS011;63613;28.200;112.870;2023-06-14T08:13:00;22.02;;;19.90;;
41952;SDS011;63613;28.200;112.870;2023-06-14T08:15:27;22.40;;;20.50;;
41952;SDS011;63613;28.200;112.870;2023-06-14T08:17:54;20.52;;;18.70;;
41952;SDS011;63613;28.200;112.870;2023-06-14T08:20:21;22.23;;;20.05;;
41952;SDS011;63613;28.200;112.870;2023-06-14T08:22:48;21.45;;;19.50;;
41952;SDS011;63613;28.200;112.870;2023-06-14T08:25:20;20.90;;;19.10;;
41952;SDS011;63613;28.200;112.870;2023-06-14T08:27:48;22.38;;;20.38;;
41952;SDS011;63613;28.200;112.870;2023-06-14T08:30:15;22.20;;;20.20;;
41952;SDS011;63613;28.200;112.870;2023-06-14T08:32:43;23.70;;;21.50;;
41952;SDS011;63613;28.200;112.870;2023-06-14T08:35:10;22.48;;;20.48;;
41952;SDS011;63613;28.200;112.870;2023-06-14T08:37:38;23.55;;;21.23;;
41952;SDS011;63613;28.200;112.870;2023-06-14T08:40:19;23.88;;;21.88;;
41952;SDS011;63613;28.200;112.870;2023-06-14T08:42:47;21.63;;;19.70;;
41952;SDS011;63613;28.200;112.870;2023-06-14T08:45:24;21.25;;;19.40;;
41952;SDS011;63613;28.200;112.870;2023-06-14T08:47:54;21.63;;;19.63;;
41952;SDS011;63613;28.200;112.870;2023-06-14T08:50:25;19.58;;;17.67;;
41952;SDS011;63613;28.200;112.870;2023-06-14T08:52:58;21.15;;;19.15;;
41952;SDS011;63613;28.200;112.870;2023-06-14T08:55:28;21.17;;;19.13;;
41952;SDS011;63613;28.200;112.870;2023-06-14T08:57:57;21.63;;;19.65;;
41952;SDS011;63613;28.200;112.870;2023-06-14T09:00:25;21.60;;;19.65;;
41952;SDS011;63613;28.200;112.870;2023-06-14T09:02:53;21.73;;;19.85;;
41952;SDS011;63613;28.200;112.870;2023-06-14T09:05:26;23.67;;;21.27;;
41952;SDS011;63613;28.200;112.870;2023-06-14T09:07:54;23.58;;;21.38;;
41952;SDS011;63613;28.200;112.870;2023-06-14T09:10:25;23.83;;;21.65;;
41952;SDS011;63613;28.200;112.870;2023-06-14T09:13:15;23.92;;;21.77;;
41952;SDS011;63613;28.200;112.870;2023-06-14T09:15:43;25.48;;;22.98;;
41952;SDS011;63613;28.200;112.870;2023-06-14T09:18:36;26.58;;;23.98;;
41952;SDS011;63613;28.200;112.870;2023-06-14T09:21:09;24.40;;;22.23;;
41952;SDS011;63613;28.200;112.870;2023-06-14T09:23:39;26.90;;;24.55;;
41952;SDS011;63613;28.200;112.870;2023-06-14T09:26:11;25.40;;;23.02;;
41952;SDS011;63613;28.200;112.870;2023-06-14T09:28:45;23.80;;;21.73;;
41952;SDS011;63613;28.200;112.870;2023-06-14T09:31:14;24.77;;;22.48;;
41952;SDS011;63613;28.200;112.870;2023-06-14T09:33:43;26.25;;;23.85;;
41952;SDS011;63613;28.200;112.870;2023-06-14T09:38:57;25.67;;;23.17;;
41952;SDS011;63613;28.200;112.870;2023-06-14T09:41:32;27.08;;;24.35;;
41952;SDS011;63613;28.200;112.870;2023-06-14T09:44:00;26.33;;;24.02;;
41952;SDS011;63613;28.200;112.870;2023-06-14T09:46:29;24.92;;;22.73;;
41952;SDS011;63613;28.200;112.870;2023-06-14T09:49:00;25.08;;;22.77;;
41952;SDS011;63613;28.200;112.870;2023-06-14T09:51:28;24.55;;;22.35;;
41952;SDS011;63613;28.200;112.870;2023-06-14T09:54:01;23.38;;;21.35;;
41952;SDS011;63613;28.200;112.870;2023-06-14T09:56:31;23.67;;;21.58;;
41952;SDS011;63613;28.200;112.870;2023-06-14T09:58:59;23.63;;;21.52;;
41952;SDS011;63613;28.200;112.870;2023-06-14T10:01:30;22.08;;;20.17;;
41952;SDS011;63613;28.200;112.870;2023-06-14T10:04:02;23.05;;;21.15;;
41952;SDS011;63613;28.200;112.870;2023-06-14T10:06:30;24.27;;;22.08;;
41952;SDS011;63613;28.200;112.870;2023-06-14T10:09:02;24.63;;;22.30;;
41952;SDS011;63613;28.200;112.870;2023-06-14T10:11:31;32.25;;;28.85;;
41952;SDS011;63613;28.200;112.870;2023-06-14T10:13:58;34.63;;;31.10;;
41952;SDS011;63613;28.200;112.870;2023-06-14T10:16:31;35.25;;;31.70;;
41952;SDS011;63613;28.200;112.870;2023-06-14T10:19:24;37.00;;;33.20;;
41952;SDS011;63613;28.200;112.870;2023-06-14T10:22:34;39.03;;;34.88;;
41952;SDS011;63613;28.200;112.870;2023-06-14T10:25:07;37.67;;;33.92;;
41952;SDS011;63613;28.200;112.870;2023-06-14T10:27:38;38.28;;;34.45;;
41952;SDS011;63613;28.200;112.870;2023-06-14T10:30:11;40.50;;;36.40;;
41952;SDS011;63613;28.200;112.870;2023-06-14T10:35:31;40.40;;;36.47;;
41952;SDS011;63613;28.200;112.870;2023-06-14T10:38:14;38.58;;;34.55;;
41952;SDS011;63613;28.200;112.870;2023-06-14T10:40:41;38.67;;;34.97;;
41952;SDS011;63613;28.200;112.870;2023-06-14T10:43:22;40.50;;;36.42;;
41952;SDS011;63613;28.200;112.870;2023-06-14T10:48:45;39.55;;;35.40;;
41952;SDS011;63613;28.200;112.870;2023-06-14T10:51:19;37.85;;;34.13;;
41952;SDS011;63613;28.200;112.870;2023-06-14T10:53:48;42.08;;;37.22;;
41952;SDS011;63613;28.200;112.870;2023-06-14T10:56:26;42.00;;;37.42;;
41952;SDS011;63613;28.200;112.870;2023-06-14T10:58:57;36.80;;;33.15;;
41952;SDS011;63613;28.200;112.870;2023-06-14T11:01:36;39.03;;;35.13;;
41952;SDS011;63613;28.200;112.870;2023-06-14T11:04:14;37.40;;;33.60;;
41952;SDS011;63613;28.200;112.870;2023-06-14T11:06:46;38.90;;;34.75;;
41952;SDS011;63613;28.200;112.870;2023-06-14T11:09:39;40.67;;;36.78;;
41952;SDS011;63613;28.200;112.870;2023-06-14T11:12:47;39.08;;;35.13;;
41952;SDS011;63613;28.200;112.870;2023-06-14T11:15:15;38.45;;;34.55;;
41952;SDS011;63613;28.200;112.870;2023-06-14T11:17:51;40.72;;;36.70;;
41952;SDS011;63613;28.200;112.870;2023-06-14T11:20:23;39.75;;;35.58;;
41952;SDS011;63613;28.200;112.870;2023-06-14T11:22:54;37.92;;;34.22;;
41952;SDS011;63613;28.200;112.870;2023-06-14T11:25:21;38.70;;;34.65;;
41952;SDS011;63613;28.200;112.870;2023-06-14T11:27:51;37.72;;;34.08;;
41952;SDS011;63613;28.200;112.870;2023-06-14T11:30:18;40.53;;;36.47;;
41952;SDS011;63613;28.200;112.870;2023-06-14T11:33:09;39.28;;;35.38;;
41952;SDS011;63613;28.200;112.870;2023-06-14T11:35:37;38.65;;;34.42;;
41952;SDS011;63613;28.200;112.870;2023-06-14T11:38:04;39.47;;;35.58;;
41952;SDS011;63613;28.200;112.870;2023-06-14T11:40:33;40.47;;;36.58;;
41952;SDS011;63613;28.200;112.870;2023-06-14T11:43:02;37.80;;;34.30;;
41952;SDS011;63613;28.200;112.870;2023-06-14T11:45:30;37.88;;;34.15;;
41952;SDS011;63613;28.200;112.870;2023-06-14T11:47:57;40.35;;;36.53;;
41952;SDS011;63613;28.200;112.870;2023-06-14T11:50:49;38.88;;;35.08;;
41952;SDS011;63613;28.200;112.870;2023-06-14T11:53:16;39.30;;;35.05;;
41952;SDS011;63613;28.200;112.870;2023-06-14T11:55:44;38.70;;;35.00;;
41952;SDS011;63613;28.200;112.870;2023-06-14T11:58:13;38.88;;;35.38;;
41952;SDS011;63613;28.200;112.870;2023-06-14T12:00:40;39.58;;;35.53;;
41952;SDS011;63613;28.200;112.870;2023-06-14T12:03:07;37.85;;;33.88;;
41952;SDS011;63613;28.200;112.870;2023-06-14T12:06:08;39.05;;;35.25;;
41952;SDS011;63613;28.200;112.870;2023-06-14T12:08:39;40.33;;;36.17;;
41952;SDS011;63613;28.200;112.870;2023-06-14T12:11:12;40.72;;;36.58;;
41952;SDS011;63613;28.200;112.870;2023-06-14T12:13:41;37.17;;;33.38;;
41952;SDS011;63613;28.200;112.870;2023-06-14T12:16:09;38.95;;;34.80;;
41952;SDS011;63613;28.200;112.870;2023-06-14T12:18:37;41.63;;;37.17;;
41952;SDS011;63613;28.200;112.870;2023-06-14T12:21:06;39.90;;;35.80;;
41952;SDS011;63613;28.200;112.870;2023-06-14T12:23:42;42.80;;;38.45;;
41952;SDS011;63613;28.200;112.870;2023-06-14T12:26:13;39.28;;;35.30;;
41952;SDS011;63613;28.200;112.870;2023-06-14T12:28:42;41.45;;;37.17;;
41952;SDS011;63613;28.200;112.870;2023-06-14T12:31:13;41.13;;;37.22;;
41952;SDS011;63613;28.200;112.870;2023-06-14T12:33:44;41.78;;;37.63;;
41952;SDS011;63613;28.200;112.870;2023-06-14T12:36:14;41.50;;;35.65;;
41952;SDS011;63613;28.200;112.870;2023-06-14T12:38:46;39.25;;;35.10;;
41952;SDS011;63613;28.200;112.870;2023-06-14T12:41:13;41.22;;;36.65;;
41952;SDS011;63613;28.200;112.870;2023-06-14T12:43:42;38.65;;;34.72;;
41952;SDS011;63613;28.200;112.870;2023-06-14T12:46:09;39.53;;;35.53;;
41952;SDS011;63613;28.200;112.870;2023-06-14T12:48:36;37.60;;;33.65;;
41952;SDS011;63613;28.200;112.870;2023-06-14T12:51:03;39.80;;;35.72;;
41952;SDS011;63613;28.200;112.870;2023-06-14T12:53:29;38.58;;;34.47;;
41952;SDS011;63613;28.200;112.870;2023-06-14T12:55:56;41.22;;;37.13;;
41952;SDS011;63613;28.200;112.870;2023-06-14T12:58:23;39.90;;;35.88;;
41952;SDS011;63613;28.200;112.870;2023-06-14T13:00:50;39.78;;;35.95;;
41952;SDS011;63613;28.200;112.870;2023-06-14T13:03:17;38.35;;;34.42;;
41952;SDS011;63613;28.200;112.870;2023-06-14T13:05:44;41.83;;;37.72;;
41952;SDS011;63613;28.200;112.870;2023-06-14T13:08:11;42.58;;;38.17;;
41952;SDS011;63613;28.200;112.870;2023-06-14T13:10:38;44.05;;;39.72;;
41952;SDS011;63613;28.200;112.870;2023-06-14T13:13:05;41.45;;;37.33;;
41952;SDS011;63613;28.200;112.870;2023-06-14T13:15:33;43.63;;;39.38;;
41952;SDS011;63613;28.200;112.870;2023-06-14T13:18:00;45.30;;;40.83;;
41952;SDS011;63613;28.200;112.870;2023-06-14T13:20:29;46.72;;;42.13;;
41952;SDS011;63613;28.200;112.870;2023-06-14T13:22:56;43.83;;;39.28;;
41952;SDS011;63613;28.200;112.870;2023-06-14T13:25:26;45.80;;;41.08;;
41952;SDS011;63613;28.200;112.870;2023-06-14T13:27:53;43.67;;;39.10;;
41952;SDS011;63613;28.200;112.870;2023-06-14T13:30:20;43.38;;;39.08;;
41952;SDS011;63613;28.200;112.870;2023-06-14T13:32:47;46.90;;;42.33;;
41952;SDS011;63613;28.200;112.870;2023-06-14T13:35:14;45.05;;;40.63;;
41952;SDS011;63613;28.200;112.870;2023-06-14T13:37:45;44.38;;;39.67;;
41952;SDS011;63613;28.200;112.870;2023-06-14T13:40:12;43.25;;;38.72;;
41952;SDS011;63613;28.200;112.870;2023-06-14T13:42:41;43.35;;;38.85;;
41952;SDS011;63613;28.200;112.870;2023-06-14T13:45:08;42.63;;;38.22;;
41952;SDS011;63613;28.200;112.870;2023-06-14T13:47:41;44.42;;;39.92;;
41952;SDS011;63613;28.200;112.870;2023-06-14T13:50:09;41.83;;;37.70;;
41952;SDS011;63613;28.200;112.870;2023-06-14T13:52:56;42.70;;;38.25;;
41952;SDS011;63613;28.200;112.870;2023-06-14T13:55:27;43.88;;;39.70;;
41952;SDS011;63613;28.200;112.870;2023-06-14T13:57:54;44.17;;;39.88;;
41952;SDS011;63613;28.200;112.870;2023-06-14T14:00:24;43.78;;;39.47;;
41952;SDS011;63613;28.200;112.870;2023-06-14T14:02:53;42.55;;;38.35;;
41952;SDS011;63613;28.200;112.870;2023-06-14T14:05:20;43.25;;;39.03;;
41952;SDS011;63613;28.200;112.870;2023-06-14T14:07:53;43.88;;;39.50;;
41952;SDS011;63613;28.200;112.870;2023-06-14T14:10:22;45.20;;;40.72;;
41952;SDS011;63613;28.200;112.870;2023-06-14T14:12:52;41.45;;;37.33;;
41952;SDS011;63613;28.200;112.870;2023-06-14T14:15:23;41.53;;;37.63;;
41952;SDS011;63613;28.200;112.870;2023-06-14T14:17:53;41.65;;;37.20;;
41952;SDS011;63613;28.200;112.870;2023-06-14T14:20:23;42.65;;;37.88;;
41952;SDS011;63613;28.200;112.870;2023-06-14T14:22:52;42.47;;;38.28;;
41952;SDS011;63613;28.200;112.870;2023-06-14T14:25:20;44.50;;;40.00;;
41952;SDS011;63613;28.200;112.870;2023-06-14T14:27:49;42.22;;;38.00;;